createdAt,value
2022-12-08T00:00:07.450Z,0
2022-12-08T00:01:07.604Z,0
2022-12-08T00:02:08.139Z,0
2022-12-08T00:03:09.108Z,0
2022-12-08T00:04:09.844Z,0
2022-12-08T00:05:09.982Z,0
2022-12-08T00:06:10.119Z,0
2022-12-08T00:07:10.260Z,0
2022-12-08T00:08:10.500Z,0
2022-12-08T00:09:10.934Z,0
2022-12-08T00:10:40.175Z,0
2022-12-08T00:11:50.258Z,0
2022-12-08T00:12:50.396Z,0
2022-12-08T00:13:50.557Z,0
2022-12-08T00:14:50.704Z,0
2022-12-08T00:15:50.866Z,0
2022-12-08T00:16:51.159Z,0
2022-12-08T00:17:51.649Z,0
2022-12-08T00:18:51.809Z,0
2022-12-08T00:19:51.984Z,0
2022-12-08T00:20:52.147Z,0
2022-12-08T00:21:52.293Z,0
2022-12-08T00:22:52.467Z,0
2022-12-08T00:23:52.609Z,0
2022-12-08T00:24:52.741Z,0
2022-12-08T00:25:52.872Z,0
2022-12-08T00:26:53.035Z,0
2022-12-08T00:27:53.169Z,0
2022-12-08T00:28:53.326Z,0
2022-12-08T00:29:53.483Z,0
2022-12-08T00:30:53.642Z,0
2022-12-08T00:31:53.895Z,0
2022-12-08T00:32:54.252Z,0
2022-12-08T00:33:54.402Z,0
2022-12-08T00:34:54.540Z,0
2022-12-08T00:35:54.685Z,0
2022-12-08T00:36:54.844Z,0
2022-12-08T00:37:59.177Z,0
2022-12-08T00:39:01.331Z,0
2022-12-08T00:40:01.712Z,0
2022-12-08T00:41:03.135Z,0
2022-12-08T00:42:03.271Z,0
2022-12-08T00:43:03.442Z,0
2022-12-08T00:44:03.582Z,0
2022-12-08T00:45:03.719Z,0
2022-12-08T00:46:03.996Z,0
2022-12-08T00:47:04.347Z,0
2022-12-08T00:48:04.477Z,0
2022-12-08T00:49:04.617Z,0
2022-12-08T00:50:04.936Z,0
2022-12-08T00:51:05.977Z,0
2022-12-08T00:52:06.119Z,0
2022-12-08T00:53:06.265Z,0
2022-12-08T00:54:06.396Z,0
2022-12-08T00:55:06.532Z,0
2022-12-08T00:56:06.664Z,0
2022-12-08T00:57:06.796Z,0
2022-12-08T00:58:06.931Z,0
2022-12-08T00:59:07.064Z,0
2022-12-08T01:00:07.425Z,0
2022-12-08T01:01:07.730Z,0
2022-12-08T01:02:08.053Z,0
2022-12-08T01:03:08.206Z,0
2022-12-08T01:04:08.446Z,0
2022-12-08T01:05:08.583Z,0
2022-12-08T01:06:08.714Z,0
2022-12-08T01:07:08.852Z,0
2022-12-08T01:08:09.105Z,0
2022-12-08T01:09:09.626Z,0
2022-12-08T01:10:09.765Z,0
2022-12-08T01:11:09.912Z,0
2022-12-08T01:12:10.041Z,0
2022-12-08T01:13:10.183Z,0
2022-12-08T01:14:10.324Z,0
2022-12-08T01:15:10.461Z,0
2022-12-08T01:16:10.701Z,0
2022-12-08T01:17:10.999Z,0
2022-12-08T01:18:11.426Z,0
2022-12-08T01:19:11.865Z,0
2022-12-08T01:20:12.229Z,0
2022-12-08T01:21:12.371Z,0
2022-12-08T01:22:12.498Z,0
2022-12-08T01:23:12.634Z,0
2022-12-08T01:24:12.768Z,0
2022-12-08T01:25:12.905Z,0
2022-12-08T01:26:13.039Z,0
2022-12-08T01:27:13.176Z,0
2022-12-08T01:28:13.311Z,0
2022-12-08T01:29:13.444Z,0
2022-12-08T01:30:13.581Z,0
2022-12-08T01:31:13.843Z,0
2022-12-08T01:32:14.292Z,0
2022-12-08T01:33:14.432Z,0
2022-12-08T01:34:14.593Z,0
2022-12-08T01:35:14.729Z,0
2022-12-08T01:36:14.863Z,0
2022-12-08T01:37:14.997Z,0
2022-12-08T01:38:15.136Z,0
2022-12-08T01:39:15.269Z,0
2022-12-08T01:40:15.406Z,0
2022-12-08T01:41:15.542Z,0
2022-12-08T01:42:15.675Z,0
2022-12-08T01:43:15.815Z,0
2022-12-08T01:44:15.947Z,0
2022-12-08T01:45:16.104Z,0
2022-12-08T01:46:16.287Z,0
2022-12-08T01:47:16.707Z,0
2022-12-08T01:48:16.907Z,0
2022-12-08T01:49:17.242Z,0
2022-12-08T01:50:17.379Z,0
2022-12-08T01:51:17.528Z,0
2022-12-08T01:52:17.660Z,0
2022-12-08T01:53:17.792Z,0
2022-12-08T01:54:17.939Z,0
2022-12-08T01:55:18.074Z,0
2022-12-08T01:56:18.217Z,0
2022-12-08T01:57:18.348Z,0
2022-12-08T01:58:18.498Z,0
2022-12-08T01:59:18.642Z,0
2022-12-08T02:00:18.776Z,0
2022-12-08T02:01:18.966Z,0
2022-12-08T02:02:19.369Z,0
2022-12-08T02:03:19.659Z,0
2022-12-08T02:04:19.788Z,0
2022-12-08T02:05:19.921Z,0
2022-12-08T02:06:20.126Z,0
2022-12-08T02:07:20.262Z,0
2022-12-08T02:08:20.490Z,0
2022-12-08T02:09:20.893Z,0
2022-12-08T02:10:21.054Z,0
2022-12-08T02:11:21.191Z,0
2022-12-08T02:12:21.321Z,0
2022-12-08T02:13:21.458Z,0
2022-12-08T02:14:21.586Z,0
2022-12-08T02:15:21.719Z,0
2022-12-08T02:16:21.896Z,0
2022-12-08T02:17:22.262Z,0
2022-12-08T02:18:22.400Z,0
2022-12-08T02:19:30.585Z,0
2022-12-08T02:20:32.233Z,0
2022-12-08T02:21:32.372Z,0
2022-12-08T02:22:32.512Z,0
2022-12-08T02:23:32.655Z,0
2022-12-08T02:24:32.785Z,0
2022-12-08T02:25:32.914Z,0
2022-12-08T02:26:33.057Z,0
2022-12-08T02:27:33.190Z,0
2022-12-08T02:28:33.320Z,0
2022-12-08T02:29:33.459Z,0
2022-12-08T02:30:33.642Z,0
2022-12-08T02:31:33.926Z,0
2022-12-08T02:32:34.063Z,0
2022-12-08T02:33:34.265Z,0
2022-12-08T02:34:34.403Z,0
2022-12-08T02:35:34.536Z,0
2022-12-08T02:36:34.674Z,0
2022-12-08T02:37:34.810Z,0
2022-12-08T02:38:34.941Z,0
2022-12-08T02:39:35.078Z,0
2022-12-08T02:40:35.214Z,0
2022-12-08T02:41:35.360Z,0
2022-12-08T02:42:35.496Z,0
2022-12-08T02:43:35.628Z,0
2022-12-08T02:44:35.758Z,0
2022-12-08T02:45:35.893Z,0
2022-12-08T02:46:36.086Z,0
2022-12-08T02:47:36.421Z,0
2022-12-08T02:48:36.549Z,0
2022-12-08T02:49:36.686Z,0
2022-12-08T02:50:36.834Z,0
2022-12-08T02:51:36.972Z,0
2022-12-08T02:52:37.114Z,0
2022-12-08T02:53:37.425Z,0
2022-12-08T02:54:37.556Z,0
2022-12-08T02:55:37.705Z,0
2022-12-08T02:56:37.843Z,0
2022-12-08T02:57:37.982Z,0
2022-12-08T02:58:38.117Z,0
2022-12-08T02:59:38.251Z,0
2022-12-08T03:00:38.388Z,0
2022-12-08T03:01:38.547Z,0
2022-12-08T03:02:38.989Z,0
2022-12-08T03:03:39.333Z,0
2022-12-08T03:04:39.464Z,0
2022-12-08T03:05:39.597Z,0
2022-12-08T03:06:39.733Z,0
2022-12-08T03:07:39.932Z,0
2022-12-08T03:08:40.244Z,0
2022-12-08T03:09:40.380Z,0
2022-12-08T03:10:40.506Z,0
2022-12-08T03:11:40.647Z,0
2022-12-08T03:12:40.778Z,0
2022-12-08T03:13:40.908Z,0
2022-12-08T03:14:41.056Z,0
2022-12-08T03:15:41.342Z,0
2022-12-08T03:16:41.581Z,0
2022-12-08T03:17:41.715Z,0
2022-12-08T03:18:44.028Z,0
2022-12-08T03:19:44.501Z,0
2022-12-08T03:20:44.631Z,0
2022-12-08T03:21:44.765Z,0
2022-12-08T03:22:44.896Z,0
2022-12-08T03:23:45.036Z,0
2022-12-08T03:24:45.168Z,0
2022-12-08T03:25:45.313Z,0
2022-12-08T03:26:45.446Z,0
2022-12-08T03:27:45.578Z,0
2022-12-08T03:28:45.721Z,0
2022-12-08T03:29:45.857Z,0
2022-12-08T03:30:46.015Z,0
2022-12-08T03:31:46.218Z,0
2022-12-08T03:32:46.358Z,0
2022-12-08T03:33:46.488Z,0
2022-12-08T03:34:46.640Z,0
2022-12-08T03:35:46.782Z,0
2022-12-08T03:36:46.933Z,0
2022-12-08T03:37:47.074Z,0
2022-12-08T03:38:47.212Z,0
2022-12-08T03:39:47.340Z,0
2022-12-08T03:40:47.472Z,0
2022-12-08T03:41:47.607Z,0
2022-12-08T03:42:47.739Z,0
2022-12-08T03:43:47.895Z,0
2022-12-08T03:44:48.051Z,0
2022-12-08T03:45:48.184Z,0
2022-12-08T03:46:48.525Z,0
2022-12-08T03:47:48.673Z,0
2022-12-08T03:48:48.832Z,0
2022-12-08T03:49:48.995Z,0
2022-12-08T03:50:49.160Z,0
2022-12-08T03:51:49.313Z,0
2022-12-08T03:52:49.471Z,0
2022-12-08T03:53:49.624Z,0
2022-12-08T03:54:49.771Z,0
2022-12-08T03:55:49.939Z,0
2022-12-08T03:56:50.096Z,0
2022-12-08T03:57:50.252Z,0
2022-12-08T03:58:50.411Z,0
2022-12-08T03:59:50.566Z,0
2022-12-08T04:00:50.716Z,0
2022-12-08T04:01:50.943Z,0
2022-12-08T04:02:51.312Z,0
2022-12-08T04:03:51.658Z,0
2022-12-08T04:04:51.813Z,0
2022-12-08T04:05:51.983Z,0
2022-12-08T04:06:52.138Z,0
2022-12-08T04:07:52.333Z,0
2022-12-08T04:08:52.633Z,0
2022-12-08T04:09:52.807Z,0
2022-12-08T04:10:52.965Z,0
2022-12-08T04:11:53.127Z,0
2022-12-08T04:12:53.276Z,0
2022-12-08T04:13:53.425Z,0
2022-12-08T04:14:53.578Z,0
2022-12-08T04:15:53.794Z,0
2022-12-08T04:16:54.185Z,0
2022-12-08T04:17:54.338Z,0
2022-12-08T04:18:54.494Z,0
2022-12-08T04:19:54.657Z,0
2022-12-08T04:20:54.806Z,0
2022-12-08T04:21:54.966Z,0
2022-12-08T04:22:55.123Z,0
2022-12-08T04:24:00.707Z,0
2022-12-08T04:25:01.863Z,0
2022-12-08T04:26:02.020Z,0
2022-12-08T04:27:02.231Z,0
2022-12-08T04:28:02.380Z,0
2022-12-08T04:29:02.543Z,0
2022-12-08T04:30:03.038Z,0
2022-12-08T04:31:04.580Z,0
2022-12-08T04:32:04.895Z,0
2022-12-08T04:33:05.053Z,0
2022-12-08T04:34:05.201Z,0
2022-12-08T04:35:05.371Z,0
2022-12-08T04:36:05.532Z,0
2022-12-08T04:37:05.693Z,0
2022-12-08T04:38:05.844Z,0
2022-12-08T04:39:06.005Z,0
2022-12-08T04:40:06.405Z,0
2022-12-08T04:41:07.518Z,0
2022-12-08T04:42:07.665Z,0
2022-12-08T04:43:07.832Z,0
2022-12-08T04:44:07.986Z,0
2022-12-08T04:45:08.147Z,0
2022-12-08T04:46:08.393Z,0
2022-12-08T04:47:08.834Z,0
2022-12-08T04:48:09.223Z,0
2022-12-08T04:49:09.376Z,0
2022-12-08T04:50:09.525Z,0
2022-12-08T04:51:09.683Z,0
2022-12-08T04:52:09.841Z,0
2022-12-08T04:53:09.990Z,0
2022-12-08T04:54:10.148Z,0
2022-12-08T04:55:10.298Z,0
2022-12-08T04:56:10.456Z,0
2022-12-08T04:57:10.612Z,0
2022-12-08T04:58:10.767Z,0
2022-12-08T04:59:10.918Z,0
2022-12-08T05:00:11.074Z,0
2022-12-08T05:01:11.270Z,0
2022-12-08T05:02:11.702Z,0
2022-12-08T05:03:12.314Z,0
2022-12-08T05:04:12.473Z,0
2022-12-08T05:05:12.625Z,0
2022-12-08T05:06:12.784Z,0
2022-12-08T05:07:12.946Z,0
2022-12-08T05:08:13.182Z,0
2022-12-08T05:09:13.655Z,0
2022-12-08T05:10:13.805Z,0
2022-12-08T05:11:13.968Z,0
2022-12-08T05:12:14.136Z,0
2022-12-08T05:13:14.292Z,0
2022-12-08T05:14:14.438Z,0
2022-12-08T05:15:14.602Z,0
2022-12-08T05:16:14.893Z,0
2022-12-08T05:17:15.313Z,0
2022-12-08T05:18:15.461Z,0
2022-12-08T05:19:15.615Z,0
2022-12-08T05:20:15.767Z,0
2022-12-08T05:21:15.918Z,0
2022-12-08T05:22:16.068Z,0
2022-12-08T05:23:16.218Z,0
2022-12-08T05:24:16.380Z,0
2022-12-08T05:25:16.526Z,0
2022-12-08T05:26:16.676Z,0
2022-12-08T05:27:16.828Z,0
2022-12-08T05:28:40.577Z,0
2022-12-08T05:29:44.282Z,0
2022-12-08T05:30:44.435Z,0
2022-12-08T05:31:44.634Z,0
2022-12-08T05:32:45.046Z,0
2022-12-08T05:33:45.196Z,0
2022-12-08T05:34:45.365Z,0
2022-12-08T05:35:45.514Z,0
2022-12-08T05:36:45.681Z,0
2022-12-08T05:37:45.834Z,0
2022-12-08T05:38:45.991Z,0
2022-12-08T05:39:46.143Z,0
2022-12-08T05:40:46.294Z,0
2022-12-08T05:41:46.447Z,0
2022-12-08T05:42:46.604Z,0
2022-12-08T05:43:46.766Z,0
2022-12-08T05:44:46.925Z,0
2022-12-08T05:45:47.130Z,0
2022-12-08T05:46:47.431Z,0
2022-12-08T05:47:47.583Z,0
2022-12-08T05:48:47.732Z,0
2022-12-08T05:49:47.884Z,0
2022-12-08T05:50:48.054Z,0
2022-12-08T05:51:48.208Z,0
2022-12-08T05:52:48.366Z,0
2022-12-08T05:53:48.527Z,0
2022-12-08T05:54:48.685Z,0
2022-12-08T05:55:48.835Z,0
2022-12-08T05:56:49.003Z,0
2022-12-08T05:57:49.153Z,0
2022-12-08T05:58:49.308Z,0
2022-12-08T05:59:49.571Z,0
2022-12-08T06:00:49.727Z,0
2022-12-08T06:01:49.924Z,0
2022-12-08T06:02:50.316Z,0
2022-12-08T06:03:50.947Z,0
2022-12-08T06:04:51.105Z,0
2022-12-08T06:05:51.359Z,0
2022-12-08T06:06:51.515Z,0
2022-12-08T06:07:51.714Z,0
2022-12-08T06:08:51.929Z,0
2022-12-08T06:09:52.083Z,0
2022-12-08T06:10:52.245Z,0
2022-12-08T06:11:52.464Z,0
2022-12-08T06:12:52.623Z,0
2022-12-08T06:13:52.777Z,0
2022-12-08T06:14:52.937Z,0
2022-12-08T06:15:53.095Z,0
2022-12-08T06:16:53.373Z,0
2022-12-08T06:17:53.774Z,0
2022-12-08T06:18:53.926Z,0
2022-12-08T06:19:54.084Z,0
2022-12-08T06:20:54.241Z,0
2022-12-08T06:21:54.403Z,0
2022-12-08T06:22:54.558Z,0
2022-12-08T06:23:54.714Z,0
2022-12-08T06:24:54.898Z,0
2022-12-08T06:25:55.061Z,0
2022-12-08T06:26:55.213Z,0
2022-12-08T06:27:55.369Z,0
2022-12-08T06:28:55.532Z,0
2022-12-08T06:29:55.683Z,0
2022-12-08T06:30:55.838Z,0
2022-12-08T06:31:56.043Z,0
2022-12-08T06:32:56.456Z,0
2022-12-08T06:33:56.608Z,0
2022-12-08T06:34:56.765Z,0
2022-12-08T06:35:56.922Z,0
2022-12-08T06:36:57.073Z,1
2022-12-08T06:37:57.225Z,2
2022-12-08T06:38:57.375Z,4
2022-12-08T06:39:57.519Z,5
2022-12-08T06:40:57.669Z,6
2022-12-08T06:41:57.821Z,8
2022-12-08T06:42:57.974Z,10
2022-12-08T06:43:58.130Z,11
2022-12-08T06:44:58.280Z,13
2022-12-08T06:45:58.484Z,15
2022-12-08T06:46:58.818Z,17
2022-12-08T06:47:58.967Z,19
2022-12-08T06:48:59.127Z,21
2022-12-08T06:49:59.356Z,24
2022-12-08T06:50:59.505Z,27
2022-12-08T06:51:59.658Z,33
2022-12-08T06:53:05.052Z,37
2022-12-08T06:54:06.027Z,41
2022-12-08T06:55:06.173Z,46
2022-12-08T06:56:06.329Z,51
2022-12-08T06:57:06.498Z,57
2022-12-08T06:58:06.646Z,64
2022-12-08T06:59:06.802Z,64
2022-12-08T07:00:07.271Z,72
2022-12-08T07:01:08.806Z,72
2022-12-08T07:02:09.371Z,80
2022-12-08T07:03:09.700Z,80
2022-12-08T07:04:09.866Z,88
2022-12-08T07:05:10.019Z,98
2022-12-08T07:06:10.169Z,98
2022-12-08T07:07:10.322Z,110
2022-12-08T07:08:10.507Z,110
2022-12-08T07:09:11.027Z,130
2022-12-08T07:10:11.180Z,130
2022-12-08T07:11:13.213Z,150
2022-12-08T07:12:22.592Z,169.92
2022-12-08T07:13:22.751Z,169.92
2022-12-08T07:14:22.906Z,189.92
2022-12-08T07:15:23.053Z,209.92
2022-12-08T07:16:23.234Z,240
2022-12-08T07:17:23.523Z,240
2022-12-08T07:18:23.679Z,240
2022-12-08T07:19:23.830Z,269.92
2022-12-08T07:20:23.985Z,269.92
2022-12-08T07:21:24.141Z,269.92
2022-12-08T07:22:24.293Z,300
2022-12-08T07:23:24.453Z,329.92
2022-12-08T07:24:24.601Z,329.92
2022-12-08T07:25:24.759Z,369.92
2022-12-08T07:26:24.910Z,409.92
2022-12-08T07:27:25.095Z,409.92
2022-12-08T07:28:25.249Z,409.92
2022-12-08T07:29:26.419Z,459.84
2022-12-08T07:30:26.787Z,459.84
2022-12-08T07:31:27.182Z,509.76
2022-12-08T07:32:27.448Z,509.76
2022-12-08T07:33:27.598Z,569.92
2022-12-08T07:34:27.767Z,569.92
2022-12-08T07:35:27.926Z,629.76
2022-12-08T07:36:28.081Z,629.76
2022-12-08T07:37:28.233Z,699.52
2022-12-08T07:38:28.377Z,699.52
2022-12-08T07:39:28.526Z,769.92
2022-12-08T07:40:28.675Z,769.92
2022-12-08T07:41:28.838Z,849.92
2022-12-08T07:42:29.005Z,949.76
2022-12-08T07:43:29.170Z,949.76
2022-12-08T07:44:29.332Z,949.76
2022-12-08T07:45:31.597Z,1059.84
2022-12-08T07:46:32.286Z,1059.84
2022-12-08T07:47:32.758Z,1179.52
2022-12-08T07:48:32.917Z,1179.52
2022-12-08T07:49:33.067Z,1179.52
2022-12-08T07:50:33.230Z,1179.52
2022-12-08T07:51:33.389Z,1299.84
2022-12-08T07:52:33.549Z,1299.84
2022-12-08T07:53:33.706Z,1299.84
2022-12-08T07:54:33.859Z,1440
2022-12-08T07:55:34.011Z,1440
2022-12-08T07:56:34.168Z,1440
2022-12-08T07:57:34.324Z,1440
2022-12-08T07:58:34.477Z,1440
2022-12-08T07:59:34.632Z,1600
2022-12-08T08:00:34.828Z,1600
2022-12-08T08:01:35.366Z,1600
2022-12-08T08:02:36.147Z,1760
2022-12-08T08:03:36.818Z,1760
2022-12-08T08:04:37.092Z,1760
2022-12-08T08:05:37.416Z,1939.2
2022-12-08T08:06:37.570Z,1939.2
2022-12-08T08:07:37.773Z,1939.2
2022-12-08T08:08:38.120Z,2159.36
2022-12-08T08:09:38.276Z,2159.36
2022-12-08T08:10:38.446Z,2159.36
2022-12-08T08:11:38.689Z,2159.36
2022-12-08T08:12:38.841Z,2159.36
2022-12-08T08:13:38.998Z,2159.36
2022-12-08T08:14:39.154Z,2159.36
2022-12-08T08:15:39.412Z,2159.36
2022-12-08T08:16:40.082Z,2159.36
2022-12-08T08:17:40.670Z,2159.36
2022-12-08T08:18:41.060Z,2039.04
2022-12-08T08:19:41.226Z,2039.04
2022-12-08T08:20:41.375Z,2039.04
2022-12-08T08:21:46.060Z,2039.04
2022-12-08T08:22:46.967Z,2080
2022-12-08T08:23:47.117Z,2080
2022-12-08T08:24:47.267Z,2080
2022-12-08T08:25:47.462Z,2080
2022-12-08T08:26:47.780Z,2080
2022-12-08T08:27:47.944Z,2080
2022-12-08T08:28:48.103Z,2119.68
2022-12-08T08:29:48.287Z,2119.68
2022-12-08T08:30:48.497Z,2119.68
2022-12-08T08:31:48.821Z,2339.84
2022-12-08T08:32:48.976Z,2339.84
2022-12-08T08:33:49.222Z,2339.84
2022-12-08T08:34:49.369Z,2339.84
2022-12-08T08:35:49.519Z,2339.84
2022-12-08T08:36:49.717Z,2579.2
2022-12-08T08:37:50.002Z,2579.2
2022-12-08T08:38:50.168Z,2579.2
2022-12-08T08:39:50.336Z,2579.2
2022-12-08T08:40:50.494Z,2579.2
2022-12-08T08:41:50.648Z,2579.2
2022-12-08T08:42:50.805Z,2579.2
2022-12-08T08:43:50.960Z,2839.04
2022-12-08T08:44:51.125Z,2839.04
2022-12-08T08:45:51.274Z,2839.04
2022-12-08T08:46:51.497Z,2839.04
2022-12-08T08:47:51.768Z,2839.04
2022-12-08T08:48:51.922Z,3159.04
2022-12-08T08:49:52.080Z,3159.04
2022-12-08T08:50:52.245Z,3159.04
2022-12-08T08:51:52.395Z,3159.04
2022-12-08T08:52:52.568Z,3159.04
2022-12-08T08:53:52.728Z,3159.04
2022-12-08T08:54:52.889Z,3479.04
2022-12-08T08:55:53.056Z,3479.04
2022-12-08T08:56:53.208Z,3840
2022-12-08T08:57:53.379Z,3840
2022-12-08T08:58:53.535Z,4259.84
2022-12-08T08:59:53.701Z,4259.84
2022-12-08T09:00:53.856Z,4697.6
2022-12-08T09:01:54.048Z,4697.6
2022-12-08T09:02:54.730Z,4697.6
2022-12-08T09:03:54.887Z,4697.6
2022-12-08T09:04:55.157Z,5178.88
2022-12-08T09:05:55.715Z,5178.88
2022-12-08T09:06:56.107Z,5178.88
2022-12-08T09:07:56.322Z,5178.88
2022-12-08T09:08:56.574Z,5178.88
2022-12-08T09:10:01.338Z,5178.88
2022-12-08T09:11:02.789Z,5698.56
2022-12-08T09:12:02.948Z,5698.56
2022-12-08T09:13:03.105Z,5698.56
2022-12-08T09:14:03.262Z,5698.56
2022-12-08T09:15:03.472Z,6277.12
2022-12-08T09:16:03.727Z,6277.12
2022-12-08T09:17:04.115Z,6277.12
2022-12-08T09:18:04.271Z,6277.12
2022-12-08T09:19:04.422Z,6277.12
2022-12-08T09:20:04.844Z,6277.12
2022-12-08T09:21:06.028Z,6277.12
2022-12-08T09:22:06.237Z,6277.12
2022-12-08T09:23:06.394Z,6277.12
2022-12-08T09:24:06.551Z,6277.12
2022-12-08T09:25:06.705Z,5939.2
2022-12-08T09:26:06.871Z,5939.2
2022-12-08T09:27:07.050Z,5939.2
2022-12-08T09:28:07.216Z,5939.2
2022-12-08T09:29:07.502Z,5319.68
2022-12-08T09:30:07.848Z,5319.68
2022-12-08T09:31:08.162Z,5319.68
2022-12-08T09:32:08.484Z,5319.68
2022-12-08T09:33:08.635Z,5319.68
2022-12-08T09:34:08.809Z,5319.68
2022-12-08T09:35:08.963Z,5319.68
2022-12-08T09:36:09.116Z,5319.68
2022-12-08T09:37:09.266Z,5319.68
2022-12-08T09:38:09.430Z,5319.68
2022-12-08T09:39:09.584Z,5698.56
2022-12-08T09:40:09.741Z,5698.56
2022-12-08T09:41:09.897Z,5698.56
2022-12-08T09:42:10.059Z,5698.56
2022-12-08T09:43:10.251Z,5698.56
2022-12-08T09:44:10.408Z,5698.56
2022-12-08T09:45:10.557Z,5698.56
2022-12-08T09:46:10.818Z,5120
2022-12-08T09:47:11.243Z,5120
2022-12-08T09:48:11.399Z,5120
2022-12-08T09:49:11.550Z,5120
2022-12-08T09:50:11.708Z,5120
2022-12-08T09:51:11.869Z,5120
2022-12-08T09:52:12.028Z,5120
2022-12-08T09:53:12.276Z,5120
2022-12-08T09:54:12.551Z,5120
2022-12-08T09:55:12.978Z,5120
2022-12-08T09:56:13.141Z,4938.24
2022-12-08T09:57:13.299Z,4938.24
2022-12-08T09:58:13.466Z,4938.24
2022-12-08T09:59:13.619Z,4938.24
2022-12-08T10:00:13.770Z,4938.24
2022-12-08T10:01:13.928Z,4938.24
2022-12-08T10:02:14.194Z,4938.24
2022-12-08T10:03:16.795Z,4938.24
2022-12-08T10:04:17.386Z,5437.44
2022-12-08T10:05:17.596Z,5437.44
2022-12-08T10:06:17.959Z,5437.44
2022-12-08T10:07:18.137Z,5437.44
2022-12-08T10:08:18.376Z,5437.44
2022-12-08T10:09:22.599Z,5437.44
2022-12-08T10:10:23.297Z,5478.4
2022-12-08T10:11:23.455Z,5478.4
2022-12-08T10:12:23.612Z,5478.4
2022-12-08T10:13:23.767Z,5478.4
2022-12-08T10:14:23.922Z,5058.56
2022-12-08T10:15:24.077Z,5058.56
2022-12-08T10:16:29.435Z,5058.56
2022-12-08T10:17:30.611Z,4979.2
2022-12-08T10:18:30.779Z,4979.2
2022-12-08T10:19:30.931Z,5657.6
2022-12-08T10:20:31.082Z,10199.04
2022-12-08T10:21:31.244Z,18790.4
2022-12-08T10:22:31.405Z,20797.44
2022-12-08T10:23:31.560Z,18391.04
2022-12-08T10:24:31.718Z,18391.04
2022-12-08T10:25:31.872Z,20797.44
2022-12-08T10:26:32.031Z,20797.44
2022-12-08T10:27:32.194Z,23388.16
2022-12-08T10:28:32.360Z,29388.8
2022-12-08T10:29:32.522Z,29388.8
2022-12-08T10:30:32.743Z,29388.8
2022-12-08T10:31:33.072Z,29388.8
2022-12-08T10:32:33.564Z,32788.48
2022-12-08T10:33:33.731Z,32788.48
2022-12-08T10:34:33.891Z,32788.48
2022-12-08T10:35:34.062Z,36188.16
2022-12-08T10:36:34.220Z,36188.16
2022-12-08T10:37:34.376Z,36188.16
2022-12-08T10:38:34.536Z,36188.16
2022-12-08T10:39:34.688Z,36188.16
2022-12-08T10:40:36.099Z,36188.16
2022-12-08T10:41:46.029Z,38584.32
2022-12-08T10:42:46.184Z,38584.32
2022-12-08T10:43:46.337Z,38584.32
2022-12-08T10:44:46.485Z,38584.32
2022-12-08T10:45:46.639Z,38789.12
2022-12-08T10:46:46.886Z,38789.12
2022-12-08T10:47:51.057Z,38789.12
2022-12-08T10:48:55.753Z,32993.28
2022-12-08T10:49:55.912Z,32993.28
2022-12-08T10:50:56.086Z,38400
2022-12-08T10:51:56.251Z,38400
2022-12-08T10:52:56.401Z,38400
2022-12-08T10:53:56.559Z,34385.92
2022-12-08T10:54:56.721Z,30597.12
2022-12-08T10:55:56.962Z,26583.04
2022-12-08T10:56:57.120Z,23183.36
2022-12-08T10:57:57.309Z,17991.68
2022-12-08T10:58:57.464Z,13793.28
2022-12-08T10:59:57.618Z,12195.84
2022-12-08T11:00:57.832Z,10598.4
2022-12-08T11:01:58.377Z,9415.68
2022-12-08T11:02:59.245Z,8437.76
2022-12-08T11:03:59.852Z,8437.76
2022-12-08T11:05:00.019Z,8437.76
2022-12-08T11:06:04.094Z,7536.64
2022-12-08T11:07:11.301Z,7336.96
2022-12-08T11:08:11.516Z,17397.76
2022-12-08T11:09:11.908Z,35594.24
2022-12-08T11:10:12.071Z,28180.48
2022-12-08T11:11:12.220Z,27381.76
2022-12-08T11:12:12.374Z,27381.76
2022-12-08T11:13:12.539Z,33587.2
2022-12-08T11:14:12.711Z,26193.92
2022-12-08T11:15:12.861Z,19998.72
2022-12-08T11:16:13.068Z,16199.68
2022-12-08T11:17:13.457Z,12390.4
2022-12-08T11:18:13.623Z,9436.16
2022-12-08T11:19:13.775Z,7459.84
2022-12-08T11:20:13.930Z,6579.2
2022-12-08T11:21:14.100Z,5898.24
2022-12-08T11:22:14.263Z,5898.24
2022-12-08T11:23:14.412Z,5299.2
2022-12-08T11:24:14.573Z,5299.2
2022-12-08T11:25:14.729Z,5299.2
2022-12-08T11:26:14.878Z,5299.2
2022-12-08T11:27:15.029Z,5299.2
2022-12-08T11:28:15.192Z,5299.2
2022-12-08T11:29:15.347Z,5299.2
2022-12-08T11:30:15.779Z,5299.2
2022-12-08T11:31:16.960Z,5959.68
2022-12-08T11:32:17.317Z,5959.68
2022-12-08T11:33:17.473Z,5959.68
2022-12-08T11:34:17.623Z,5959.68
2022-12-08T11:35:17.780Z,5959.68
2022-12-08T11:36:17.938Z,5959.68
2022-12-08T11:37:18.099Z,5959.68
2022-12-08T11:38:22.239Z,5959.68
2022-12-08T11:39:23.293Z,5877.76
2022-12-08T11:40:23.450Z,5877.76
2022-12-08T11:41:23.610Z,6379.52
2022-12-08T11:42:23.777Z,7055.36
2022-12-08T11:43:23.939Z,8038.4
2022-12-08T11:44:24.109Z,8038.4
2022-12-08T11:45:24.265Z,8038.4
2022-12-08T11:46:24.456Z,8038.4
2022-12-08T11:47:24.820Z,8038.4
2022-12-08T11:48:24.970Z,7198.72
2022-12-08T11:49:25.157Z,7198.72
2022-12-08T11:50:25.328Z,7198.72
2022-12-08T11:51:25.477Z,7198.72
2022-12-08T11:52:25.633Z,11397.12
2022-12-08T11:53:25.785Z,19599.36
2022-12-08T11:54:25.941Z,19599.36
2022-12-08T11:55:26.098Z,15196.16
2022-12-08T11:56:26.245Z,11796.48
2022-12-08T11:57:26.423Z,10598.4
2022-12-08T11:58:26.837Z,9395.2
2022-12-08T11:59:27.244Z,8437.76
2022-12-08T12:00:27.490Z,8437.76
2022-12-08T12:01:27.645Z,7536.64
2022-12-08T12:02:27.895Z,7536.64
2022-12-08T12:03:28.306Z,7536.64
2022-12-08T12:04:28.640Z,7536.64
2022-12-08T12:05:40.045Z,6778.88
2022-12-08T12:07:37.699Z,6359.04
2022-12-08T12:08:37.987Z,6359.04
2022-12-08T12:09:38.149Z,6359.04
2022-12-08T12:10:38.303Z,6359.04
2022-12-08T12:11:38.455Z,6359.04
2022-12-08T12:12:40.001Z,6359.04
2022-12-08T12:13:40.412Z,6359.04
2022-12-08T12:14:40.672Z,6359.04
2022-12-08T12:15:40.829Z,6497.28
2022-12-08T12:16:41.043Z,7459.84
2022-12-08T12:17:41.439Z,15390.72
2022-12-08T12:18:41.595Z,15390.72
2022-12-08T12:19:41.754Z,17991.68
2022-12-08T12:20:41.903Z,26787.84
2022-12-08T12:21:42.052Z,33587.2
2022-12-08T12:22:42.219Z,33587.2
2022-12-08T12:23:42.426Z,33587.2
2022-12-08T12:24:42.576Z,22179.84
2022-12-08T12:25:42.731Z,16599.04
2022-12-08T12:26:42.881Z,14397.44
2022-12-08T12:27:43.033Z,11397.12
2022-12-08T12:28:43.189Z,10199.04
2022-12-08T12:29:43.344Z,9016.32
2022-12-08T12:30:43.535Z,7976.96
2022-12-08T12:31:43.813Z,7976.96
2022-12-08T12:32:43.968Z,7976.96
2022-12-08T12:33:44.125Z,7157.76
2022-12-08T12:34:44.287Z,7157.76
2022-12-08T12:35:44.437Z,7157.76
2022-12-08T12:36:44.591Z,7157.76
2022-12-08T12:37:44.774Z,6435.84
2022-12-08T12:38:45.049Z,6435.84
2022-12-08T12:39:45.207Z,6435.84
2022-12-08T12:40:45.359Z,6435.84
2022-12-08T12:41:45.516Z,6435.84
2022-12-08T12:42:45.664Z,6435.84
2022-12-08T12:43:45.824Z,6435.84
2022-12-08T12:44:45.985Z,6435.84
2022-12-08T12:45:46.186Z,7096.32
2022-12-08T12:46:46.539Z,7096.32
2022-12-08T12:47:49.679Z,9835.52
2022-12-08T12:48:57.384Z,12595.2
2022-12-08T12:49:57.542Z,19200
2022-12-08T12:50:57.691Z,24391.68
2022-12-08T12:51:57.839Z,27381.76
2022-12-08T12:52:57.993Z,24391.68
2022-12-08T12:53:58.162Z,21790.72
2022-12-08T12:54:58.321Z,19394.56
2022-12-08T12:55:58.478Z,19394.56
2022-12-08T12:56:58.627Z,19394.56
2022-12-08T12:57:58.780Z,19394.56
2022-12-08T12:58:58.934Z,19394.56
2022-12-08T12:59:59.093Z,19394.56
2022-12-08T13:00:59.292Z,19394.56
2022-12-08T13:01:59.589Z,19394.56
2022-12-08T13:02:59.821Z,17397.76
2022-12-08T13:04:00.215Z,17397.76
2022-12-08T13:05:00.369Z,17397.76
2022-12-08T13:06:00.536Z,17397.76
2022-12-08T13:07:00.697Z,17397.76
2022-12-08T13:08:00.900Z,19394.56
2022-12-08T13:09:01.369Z,19394.56
2022-12-08T13:10:01.568Z,19394.56
2022-12-08T13:11:02.145Z,21381.12
2022-12-08T13:12:02.309Z,21381.12
2022-12-08T13:13:02.466Z,21381.12
2022-12-08T13:14:02.633Z,21381.12
2022-12-08T13:15:02.790Z,19200
2022-12-08T13:16:10.129Z,19200
2022-12-08T13:17:19.768Z,19394.56
2022-12-08T13:18:20.119Z,21196.8
2022-12-08T13:19:20.273Z,23592.96
2022-12-08T13:20:20.425Z,25989.12
2022-12-08T13:21:20.580Z,25989.12
2022-12-08T13:22:20.736Z,25989.12
2022-12-08T13:23:20.888Z,23388.16
2022-12-08T13:24:21.064Z,20797.44
2022-12-08T13:25:21.270Z,20797.44
2022-12-08T13:26:21.463Z,18595.84
2022-12-08T13:27:21.623Z,16394.24
2022-12-08T13:28:21.791Z,16394.24
2022-12-08T13:29:21.944Z,14592
2022-12-08T13:30:22.105Z,14592
2022-12-08T13:31:22.299Z,14592
2022-12-08T13:32:22.549Z,14592